sensor_id;sensor_type;location;lat;lon;timestamp;P1;durP1;ratioP1;P2;durP2;ratioP2
33740;SDS011;20065;48.380;10.892;2023-08-01T00:01:53;7.83;;;3.73;;
33740;SDS011;20065;48.380;10.892;2023-08-01T00:04:39;5.73;;;3.40;;
33740;SDS011;20065;48.380;10.892;2023-08-01T00:07:28;5.73;;;3.83;;
33740;SDS011;20065;48.380;10.892;2023-08-01T00:10:14;5.80;;;3.60;;
33740;SDS011;20065;48.380;10.892;2023-08-01T00:13:03;5.90;;;3.50;;
33740;SDS011;20065;48.380;10.892;2023-08-01T00:15:50;8.13;;;3.73;;
33740;SDS011;20065;48.380;10.892;2023-08-01T00:18:36;7.67;;;3.40;;
33740;SDS011;20065;48.380;10.892;2023-08-01T00:21:22;6.80;;;3.43;;
33740;SDS011;20065;48.380;10.892;2023-08-01T00:24:08;5.43;;;2.97;;
33740;SDS011;20065;48.380;10.892;2023-08-01T00:26:54;5.57;;;3.07;;
33740;SDS011;20065;48.380;10.892;2023-08-01T00:29:41;7.20;;;4.10;;
33740;SDS011;20065;48.380;10.892;2023-08-01T00:32:30;10.03;;;3.33;;
33740;SDS011;20065;48.380;10.892;2023-08-01T00:35:17;6.40;;;3.80;;
33740;SDS011;20065;48.380;10.892;2023-08-01T00:38:03;6.80;;;3.50;;
33740;SDS011;20065;48.380;10.892;2023-08-01T00:40:49;6.70;;;3.30;;
33740;SDS011;20065;48.380;10.892;2023-08-01T00:43:35;7.67;;;3.20;;
33740;SDS011;20065;48.380;10.892;2023-08-01T00:46:22;6.70;;;3.30;;
33740;SDS011;20065;48.380;10.892;2023-08-01T00:49:08;7.00;;;4.00;;
33740;SDS011;20065;48.380;10.892;2023-08-01T00:51:54;6.97;;;3.23;;
33740;SDS011;20065;48.380;10.892;2023-08-01T00:54:43;6.70;;;3.70;;
33740;SDS011;20065;48.380;10.892;2023-08-01T00:57:29;6.10;;;3.50;;
33740;SDS011;20065;48.380;10.892;2023-08-01T01:00:15;9.77;;;3.57;;
33740;SDS011;20065;48.380;10.892;2023-08-01T01:03:02;6.50;;;3.70;;
33740;SDS011;20065;48.380;10.892;2023-08-01T01:08:50;7.50;;;4.17;;
33740;SDS011;20065;48.380;10.892;2023-08-01T01:11:36;7.63;;;4.10;;
33740;SDS011;20065;48.380;10.892;2023-08-01T01:14:22;6.40;;;3.60;;
33740;SDS011;20065;48.380;10.892;2023-08-01T01:17:08;8.40;;;3.33;;
33740;SDS011;20065;48.380;10.892;2023-08-01T01:19:54;7.77;;;3.60;;
33740;SDS011;20065;48.380;10.892;2023-08-01T01:22:40;8.33;;;3.60;;
33740;SDS011;20065;48.380;10.892;2023-08-01T01:25:29;9.40;;;3.57;;
33740;SDS011;20065;48.380;10.892;2023-08-01T01:28:16;6.17;;;3.70;;
33740;SDS011;20065;48.380;10.892;2023-08-01T01:31:03;7.80;;;3.40;;
33740;SDS011;20065;48.380;10.892;2023-08-01T01:33:49;5.50;;;3.47;;
33740;SDS011;20065;48.380;10.892;2023-08-01T01:36:36;7.73;;;3.37;;
33740;SDS011;20065;48.380;10.892;2023-08-01T01:39:22;8.87;;;3.60;;
33740;SDS011;20065;48.380;10.892;2023-08-01T01:42:09;6.30;;;3.83;;
33740;SDS011;20065;48.380;10.892;2023-08-01T01:44:57;8.90;;;3.90;;
33740;SDS011;20065;48.380;10.892;2023-08-01T01:47:43;6.73;;;3.70;;
33740;SDS011;20065;48.380;10.892;2023-08-01T01:50:32;6.40;;;3.33;;
33740;SDS011;20065;48.380;10.892;2023-08-01T01:53:19;6.53;;;3.00;;
33740;SDS011;20065;48.380;10.892;2023-08-01T01:56:05;5.97;;;2.70;;
33740;SDS011;20065;48.380;10.892;2023-08-01T01:58:53;5.10;;;3.47;;
33740;SDS011;20065;48.380;10.892;2023-08-01T02:01:39;8.73;;;3.87;;
33740;SDS011;20065;48.380;10.892;2023-08-01T02:04:25;6.33;;;2.70;;
33740;SDS011;20065;48.380;10.892;2023-08-01T02:07:11;5.07;;;2.80;;
33740;SDS011;20065;48.380;10.892;2023-08-01T02:09:59;7.03;;;3.90;;
33740;SDS011;20065;48.380;10.892;2023-08-01T02:12:49;7.03;;;3.23;;
33740;SDS011;20065;48.380;10.892;2023-08-01T02:15:35;5.60;;;3.47;;
33740;SDS011;20065;48.380;10.892;2023-08-01T02:18:25;6.30;;;2.90;;
33740;SDS011;20065;48.380;10.892;2023-08-01T02:21:12;6.27;;;3.70;;
33740;SDS011;20065;48.380;10.892;2023-08-01T02:23:58;6.40;;;3.37;;
33740;SDS011;20065;48.380;10.892;2023-08-01T02:26:44;7.27;;;3.23;;
33740;SDS011;20065;48.380;10.892;2023-08-01T02:29:30;5.60;;;3.10;;
33740;SDS011;20065;48.380;10.892;2023-08-01T02:32:17;7.87;;;3.60;;
33740;SDS011;20065;48.380;10.892;2023-08-01T02:35:03;7.63;;;3.60;;
33740;SDS011;20065;48.380;10.892;2023-08-01T02:37:50;10.57;;;3.83;;
33740;SDS011;20065;48.380;10.892;2023-08-01T02:40:36;7.50;;;3.33;;
33740;SDS011;20065;48.380;10.892;2023-08-01T02:43:22;7.17;;;3.33;;
33740;SDS011;20065;48.380;10.892;2023-08-01T02:46:09;8.60;;;3.53;;
33740;SDS011;20065;48.380;10.892;2023-08-01T02:48:55;6.50;;;3.60;;
33740;SDS011;20065;48.380;10.892;2023-08-01T02:51:41;6.70;;;3.40;;
33740;SDS011;20065;48.380;10.892;2023-08-01T02:54:28;6.73;;;4.13;;
33740;SDS011;20065;48.380;10.892;2023-08-01T02:57:14;8.33;;;4.67;;
33740;SDS011;20065;48.380;10.892;2023-08-01T03:00:00;7.30;;;3.87;;
33740;SDS011;20065;48.380;10.892;2023-08-01T03:02:50;7.43;;;4.10;;
33740;SDS011;20065;48.380;10.892;2023-08-01T03:05:37;9.83;;;4.13;;
33740;SDS011;20065;48.380;10.892;2023-08-01T03:08:24;5.30;;;3.33;;
33740;SDS011;20065;48.380;10.892;2023-08-01T03:11:10;8.10;;;4.30;;
33740;SDS011;20065;48.380;10.892;2023-08-01T03:13:56;7.90;;;4.33;;
33740;SDS011;20065;48.380;10.892;2023-08-01T03:16:42;6.70;;;3.93;;
33740;SDS011;20065;48.380;10.892;2023-08-01T03:19:30;12.73;;;4.40;;
33740;SDS011;20065;48.380;10.892;2023-08-01T03:22:17;6.50;;;4.27;;
33740;SDS011;20065;48.380;10.892;2023-08-01T03:25:03;8.00;;;4.43;;
33740;SDS011;20065;48.380;10.892;2023-08-01T03:27:52;9.03;;;4.50;;
33740;SDS011;20065;48.380;10.892;2023-08-01T03:30:39;8.47;;;4.40;;
33740;SDS011;20065;48.380;10.892;2023-08-01T03:33:26;8.53;;;4.90;;
33740;SDS011;20065;48.380;10.892;2023-08-01T03:36:12;13.60;;;5.00;;
33740;SDS011;20065;48.380;10.892;2023-08-01T03:38:59;10.87;;;4.90;;
33740;SDS011;20065;48.380;10.892;2023-08-01T03:41:45;9.83;;;4.70;;
33740;SDS011;20065;48.380;10.892;2023-08-01T03:44:31;10.77;;;4.57;;
33740;SDS011;20065;48.380;10.892;2023-08-01T03:47:31;8.60;;;5.30;;
33740;SDS011;20065;48.380;10.892;2023-08-01T03:50:20;10.20;;;5.30;;
33740;SDS011;20065;48.380;10.892;2023-08-01T03:53:09;8.00;;;5.07;;
33740;SDS011;20065;48.380;10.892;2023-08-01T03:55:55;8.77;;;4.50;;
33740;SDS011;20065;48.380;10.892;2023-08-01T03:58:41;11.77;;;5.70;;
33740;SDS011;20065;48.380;10.892;2023-08-01T04:01:28;8.33;;;4.43;;
33740;SDS011;20065;48.380;10.892;2023-08-01T04:04:14;9.53;;;4.77;;
33740;SDS011;20065;48.380;10.892;2023-08-01T04:07:01;9.60;;;5.67;;
33740;SDS011;20065;48.380;10.892;2023-08-01T04:09:47;9.70;;;5.70;;
33740;SDS011;20065;48.380;10.892;2023-08-01T04:12:34;11.60;;;5.30;;
33740;SDS011;20065;48.380;10.892;2023-08-01T04:15:20;8.50;;;5.30;;
33740;SDS011;20065;48.380;10.892;2023-08-01T04:18:06;8.77;;;5.67;;
33740;SDS011;20065;48.380;10.892;2023-08-01T04:20:52;10.93;;;5.20;;
33740;SDS011;20065;48.380;10.892;2023-08-01T04:23:38;10.67;;;5.50;;
33740;SDS011;20065;48.380;10.892;2023-08-01T04:26:24;8.67;;;5.70;;
33740;SDS011;20065;48.380;10.892;2023-08-01T04:29:11;8.83;;;5.10;;
33740;SDS011;20065;48.380;10.892;2023-08-01T04:32:00;8.47;;;4.93;;
33740;SDS011;20065;48.380;10.892;2023-08-01T04:34:47;9.37;;;5.10;;
33740;SDS011;20065;48.380;10.892;2023-08-01T04:37:33;10.70;;;5.60;;
33740;SDS011;20065;48.380;10.892;2023-08-01T04:40:19;12.73;;;5.30;;
33740;SDS011;20065;48.380;10.892;2023-08-01T04:43:05;9.30;;;6.07;;
33740;SDS011;20065;48.380;10.892;2023-08-01T04:45:51;10.13;;;5.37;;
33740;SDS011;20065;48.380;10.892;2023-08-01T04:48:38;11.37;;;5.43;;
33740;SDS011;20065;48.380;10.892;2023-08-01T04:51:24;9.33;;;5.70;;
33740;SDS011;20065;48.380;10.892;2023-08-01T04:54:10;12.13;;;5.70;;
33740;SDS011;20065;48.380;10.892;2023-08-01T04:56:56;8.53;;;5.50;;
33740;SDS011;20065;48.380;10.892;2023-08-01T04:59:43;9.67;;;4.90;;
33740;SDS011;20065;48.380;10.892;2023-08-01T05:02:29;7.80;;;5.40;;
33740;SDS011;20065;48.380;10.892;2023-08-01T05:05:15;10.27;;;5.27;;
33740;SDS011;20065;48.380;10.892;2023-08-01T05:08:01;9.77;;;4.90;;
33740;SDS011;20065;48.380;10.892;2023-08-01T05:10:48;8.83;;;5.17;;
33740;SDS011;20065;48.380;10.892;2023-08-01T05:13:34;9.63;;;5.57;;
33740;SDS011;20065;48.380;10.892;2023-08-01T05:16:20;8.23;;;5.00;;
33740;SDS011;20065;48.380;10.892;2023-08-01T05:19:06;7.80;;;4.77;;
33740;SDS011;20065;48.380;10.892;2023-08-01T05:21:52;8.70;;;5.23;;
33740;SDS011;20065;48.380;10.892;2023-08-01T05:24:39;7.87;;;5.33;;
33740;SDS011;20065;48.380;10.892;2023-08-01T05:27:25;9.40;;;4.97;;
33740;SDS011;20065;48.380;10.892;2023-08-01T05:30:11;9.80;;;5.80;;
33740;SDS011;20065;48.380;10.892;2023-08-01T05:32:57;10.93;;;5.50;;
33740;SDS011;20065;48.380;10.892;2023-08-01T05:35:44;11.23;;;5.73;;
33740;SDS011;20065;48.380;10.892;2023-08-01T05:38:30;7.00;;;5.40;;
33740;SDS011;20065;48.380;10.892;2023-08-01T05:41:16;9.07;;;5.40;;
33740;SDS011;20065;48.380;10.892;2023-08-01T05:44:02;8.60;;;5.53;;
33740;SDS011;20065;48.380;10.892;2023-08-01T05:46:49;7.43;;;5.10;;
33740;SDS011;20065;48.380;10.892;2023-08-01T05:49:35;8.90;;;5.63;;
33740;SDS011;20065;48.380;10.892;2023-08-01T05:52:21;10.00;;;5.10;;
33740;SDS011;20065;48.380;10.892;2023-08-01T05:55:08;7.80;;;4.90;;
33740;SDS011;20065;48.380;10.892;2023-08-01T05:57:55;9.23;;;5.00;;
33740;SDS011;20065;48.380;10.892;2023-08-01T06:00:41;9.60;;;5.13;;
33740;SDS011;20065;48.380;10.892;2023-08-01T06:03:27;7.87;;;4.13;;
33740;SDS011;20065;48.380;10.892;2023-08-01T06:06:13;8.30;;;5.23;;
33740;SDS011;20065;48.380;10.892;2023-08-01T06:08:59;8.20;;;4.83;;
33740;SDS011;20065;48.380;10.892;2023-08-01T06:11:45;8.00;;;5.07;;
33740;SDS011;20065;48.380;10.892;2023-08-01T06:14:32;9.77;;;5.10;;
33740;SDS011;20065;48.380;10.892;2023-08-01T06:17:18;9.40;;;4.63;;
33740;SDS011;20065;48.380;10.892;2023-08-01T06:20:04;8.10;;;5.23;;
33740;SDS011;20065;48.380;10.892;2023-08-01T06:22:51;8.03;;;5.17;;
33740;SDS011;20065;48.380;10.892;2023-08-01T06:25:37;8.00;;;5.60;;
33740;SDS011;20065;48.380;10.892;2023-08-01T06:28:23;9.07;;;4.53;;
33740;SDS011;20065;48.380;10.892;2023-08-01T06:31:09;6.87;;;4.23;;
33740;SDS011;20065;48.380;10.892;2023-08-01T06:33:56;8.00;;;4.80;;
33740;SDS011;20065;48.380;10.892;2023-08-01T06:36:42;6.17;;;4.00;;
33740;SDS011;20065;48.380;10.892;2023-08-01T06:39:28;7.97;;;3.90;;
33740;SDS011;20065;48.380;10.892;2023-08-01T06:42:15;7.20;;;4.73;;
33740;SDS011;20065;48.380;10.892;2023-08-01T06:45:01;10.13;;;4.90;;
33740;SDS011;20065;48.380;10.892;2023-08-01T06:47:47;7.00;;;3.60;;
33740;SDS011;20065;48.380;10.892;2023-08-01T06:50:34;9.87;;;3.90;;
33740;SDS011;20065;48.380;10.892;2023-08-01T06:53:21;7.93;;;4.73;;
33740;SDS011;20065;48.380;10.892;2023-08-01T06:56:07;5.67;;;3.77;;
33740;SDS011;20065;48.380;10.892;2023-08-01T06:58:53;8.53;;;4.93;;
33740;SDS011;20065;48.380;10.892;2023-08-01T07:01:39;12.80;;;4.50;;
33740;SDS011;20065;48.380;10.892;2023-08-01T07:04:28;9.83;;;4.50;;
33740;SDS011;20065;48.380;10.892;2023-08-01T07:07:14;8.20;;;4.13;;
33740;SDS011;20065;48.380;10.892;2023-08-01T07:10:01;7.97;;;4.10;;
33740;SDS011;20065;48.380;10.892;2023-08-01T07:12:47;8.73;;;4.73;;
33740;SDS011;20065;48.380;10.892;2023-08-01T07:15:33;8.00;;;3.90;;
33740;SDS011;20065;48.380;10.892;2023-08-01T07:18:20;8.00;;;4.77;;
33740;SDS011;20065;48.380;10.892;2023-08-01T07:21:06;7.67;;;4.57;;
33740;SDS011;20065;48.380;10.892;2023-08-01T07:23:52;6.20;;;3.17;;
33740;SDS011;20065;48.380;10.892;2023-08-01T07:26:38;5.53;;;3.23;;
33740;SDS011;20065;48.380;10.892;2023-08-01T07:29:25;6.23;;;3.53;;
33740;SDS011;20065;48.380;10.892;2023-08-01T07:32:12;7.13;;;4.00;;
33740;SDS011;20065;48.380;10.892;2023-08-01T07:34:59;5.93;;;3.60;;
33740;SDS011;20065;48.380;10.892;2023-08-01T07:37:45;7.17;;;3.07;;
33740;SDS011;20065;48.380;10.892;2023-08-01T07:40:32;7.73;;;4.00;;
33740;SDS011;20065;48.380;10.892;2023-08-01T07:43:21;8.20;;;4.10;;
33740;SDS011;20065;48.380;10.892;2023-08-01T07:46:09;8.97;;;4.00;;
33740;SDS011;20065;48.380;10.892;2023-08-01T07:48:57;6.70;;;3.90;;
33740;SDS011;20065;48.380;10.892;2023-08-01T07:51:44;10.73;;;4.90;;
33740;SDS011;20065;48.380;10.892;2023-08-01T07:54:31;8.07;;;4.97;;
33740;SDS011;20065;48.380;10.892;2023-08-01T07:57:17;8.90;;;3.60;;
33740;SDS011;20065;48.380;10.892;2023-08-01T08:00:03;6.57;;;4.10;;
33740;SDS011;20065;48.380;10.892;2023-08-01T08:02:59;7.07;;;4.00;;
33740;SDS011;20065;48.380;10.892;2023-08-01T08:05:45;6.97;;;4.30;;
33740;SDS011;20065;48.380;10.892;2023-08-01T08:08:31;6.90;;;3.90;;
33740;SDS011;20065;48.380;10.892;2023-08-01T08:11:19;9.87;;;4.70;;
33740;SDS011;20065;48.380;10.892;2023-08-01T08:14:05;7.80;;;4.20;;
33740;SDS011;20065;48.380;10.892;2023-08-01T08:16:51;8.80;;;4.30;;
33740;SDS011;20065;48.380;10.892;2023-08-01T08:19:37;5.80;;;3.50;;
33740;SDS011;20065;48.380;10.892;2023-08-01T08:22:23;8.00;;;4.20;;
33740;SDS011;20065;48.380;10.892;2023-08-01T08:25:09;10.30;;;4.50;;
33740;SDS011;20065;48.380;10.892;2023-08-01T08:27:55;8.17;;;4.70;;
33740;SDS011;20065;48.380;10.892;2023-08-01T08:30:42;6.60;;;3.70;;
33740;SDS011;20065;48.380;10.892;2023-08-01T08:33:28;7.23;;;3.77;;
33740;SDS011;20065;48.380;10.892;2023-08-01T08:36:14;7.47;;;3.97;;
33740;SDS011;20065;48.380;10.892;2023-08-01T08:39:00;6.20;;;3.90;;
33740;SDS011;20065;48.380;10.892;2023-08-01T08:41:51;6.97;;;3.80;;
33740;SDS011;20065;48.380;10.892;2023-08-01T08:44:42;8.27;;;3.43;;
33740;SDS011;20065;48.380;10.892;2023-08-01T08:47:29;7.37;;;4.37;;
33740;SDS011;20065;48.380;10.892;2023-08-01T08:50:21;8.30;;;4.03;;
33740;SDS011;20065;48.380;10.892;2023-08-01T08:53:08;5.70;;;3.27;;
33740;SDS011;20065;48.380;10.892;2023-08-01T08:55:59;5.63;;;3.20;;
33740;SDS011;20065;48.380;10.892;2023-08-01T08:58:45;7.93;;;3.70;;
33740;SDS011;20065;48.380;10.892;2023-08-01T09:01:32;5.50;;;3.27;;
33740;SDS011;20065;48.380;10.892;2023-08-01T09:04:19;7.63;;;3.83;;
33740;SDS011;20065;48.380;10.892;2023-08-01T09:07:07;6.83;;;3.60;;
33740;SDS011;20065;48.380;10.892;2023-08-01T09:09:55;8.90;;;3.50;;
33740;SDS011;20065;48.380;10.892;2023-08-01T09:12:41;7.60;;;3.53;;
33740;SDS011;20065;48.380;10.892;2023-08-01T09:15:27;6.00;;;3.20;;
33740;SDS011;20065;48.380;10.892;2023-08-01T09:18:14;9.00;;;3.70;;
33740;SDS011;20065;48.380;10.892;2023-08-01T09:21:00;7.80;;;3.37;;
33740;SDS011;20065;48.380;10.892;2023-08-01T09:23:48;5.47;;;3.20;;
33740;SDS011;20065;48.380;10.892;2023-08-01T09:26:34;10.07;;;3.80;;
33740;SDS011;20065;48.380;10.892;2023-08-01T09:29:20;7.70;;;3.20;;
33740;SDS011;20065;48.380;10.892;2023-08-01T09:32:13;6.10;;;3.83;;
33740;SDS011;20065;48.380;10.892;2023-08-01T09:34:59;5.33;;;3.30;;
33740;SDS011;20065;48.380;10.892;2023-08-01T09:37:46;5.83;;;2.67;;
33740;SDS011;20065;48.380;10.892;2023-08-01T09:40:36;6.00;;;3.33;;
33740;SDS011;20065;48.380;10.892;2023-08-01T09:43:22;4.93;;;3.20;;
33740;SDS011;20065;48.380;10.892;2023-08-01T09:46:09;8.33;;;3.10;;
33740;SDS011;20065;48.380;10.892;2023-08-01T09:49:06;5.73;;;3.03;;
33740;SDS011;20065;48.380;10.892;2023-08-01T09:51:53;7.47;;;3.43;;
33740;SDS011;20065;48.380;10.892;2023-08-01T09:54:39;6.13;;;3.43;;
33740;SDS011;20065;48.380;10.892;2023-08-01T09:57:27;7.83;;;3.53;;
33740;SDS011;20065;48.380;10.892;2023-08-01T10:00:15;5.57;;;3.30;;
33740;SDS011;20065;48.380;10.892;2023-08-01T10:03:01;7.23;;;4.47;;
33740;SDS011;20065;48.380;10.892;2023-08-01T10:05:49;7.90;;;4.50;;
33740;SDS011;20065;48.380;10.892;2023-08-01T10:08:39;7.53;;;3.33;;
33740;SDS011;20065;48.380;10.892;2023-08-01T10:11:26;6.43;;;3.83;;
33740;SDS011;20065;48.380;10.892;2023-08-01T10:14:13;8.53;;;3.80;;
33740;SDS011;20065;48.380;10.892;2023-08-01T10:17:01;7.60;;;3.67;;
33740;SDS011;20065;48.380;10.892;2023-08-01T10:19:49;11.83;;;4.10;;
33740;SDS011;20065;48.380;10.892;2023-08-01T10:22:36;10.57;;;5.10;;
33740;SDS011;20065;48.380;10.892;2023-08-01T10:25:24;6.90;;;4.33;;
33740;SDS011;20065;48.380;10.892;2023-08-01T10:28:12;8.33;;;4.43;;
33740;SDS011;20065;48.380;10.892;2023-08-01T10:34:02;7.00;;;4.07;;
33740;SDS011;20065;48.380;10.892;2023-08-01T10:36:56;7.37;;;4.43;;
33740;SDS011;20065;48.380;10.892;2023-08-01T10:39:55;6.30;;;3.53;;
33740;SDS011;20065;48.380;10.892;2023-08-01T10:42:43;7.80;;;4.47;;
33740;SDS011;20065;48.380;10.892;2023-08-01T10:45:30;8.80;;;3.87;;
33740;SDS011;20065;48.380;10.892;2023-08-01T10:48:17;8.70;;;3.70;;
33740;SDS011;20065;48.380;10.892;2023-08-01T10:51:06;6.60;;;3.37;;
33740;SDS011;20065;48.380;10.892;2023-08-01T10:53:52;7.60;;;3.87;;
33740;SDS011;20065;48.380;10.892;2023-08-01T10:56:38;5.27;;;3.40;;
33740;SDS011;20065;48.380;10.892;2023-08-01T10:59:30;7.30;;;3.27;;
33740;SDS011;20065;48.380;10.892;2023-08-01T11:02:25;6.37;;;3.43;;
33740;SDS011;20065;48.380;10.892;2023-08-01T11:05:14;7.90;;;3.00;;
33740;SDS011;20065;48.380;10.892;2023-08-01T11:08:01;9.00;;;3.43;;
33740;SDS011;20065;48.380;10.892;2023-08-01T11:10:49;6.13;;;2.90;;
33740;SDS011;20065;48.380;10.892;2023-08-01T11:13:35;5.47;;;3.00;;
33740;SDS011;20065;48.380;10.892;2023-08-01T11:16:22;4.73;;;2.87;;
33740;SDS011;20065;48.380;10.892;2023-08-01T11:19:27;4.70;;;3.00;;
33740;SDS011;20065;48.380;10.892;2023-08-01T11:22:14;6.20;;;3.00;;
33740;SDS011;20065;48.380;10.892;2023-08-01T11:25:01;7.00;;;3.10;;
33740;SDS011;20065;48.380;10.892;2023-08-01T11:27:47;6.20;;;2.70;;
33740;SDS011;20065;48.380;10.892;2023-08-01T11:30:33;4.23;;;2.53;;
33740;SDS011;20065;48.380;10.892;2023-08-01T11:33:23;4.40;;;2.57;;
33740;SDS011;20065;48.380;10.892;2023-08-01T11:36:09;5.40;;;2.33;;
33740;SDS011;20065;48.380;10.892;2023-08-01T11:38:56;9.30;;;2.87;;
33740;SDS011;20065;48.380;10.892;2023-08-01T11:41:44;5.33;;;3.10;;
33740;SDS011;20065;48.380;10.892;2023-08-01T11:44:30;6.10;;;3.10;;
33740;SDS011;20065;48.380;10.892;2023-08-01T11:47:17;5.00;;;3.30;;
33740;SDS011;20065;48.380;10.892;2023-08-01T11:50:06;7.33;;;3.07;;
33740;SDS011;20065;48.380;10.892;2023-08-01T11:52:53;5.37;;;3.00;;
33740;SDS011;20065;48.380;10.892;2023-08-01T11:55:39;6.23;;;3.20;;
33740;SDS011;20065;48.380;10.892;2023-08-01T12:01:17;5.70;;;2.80;;
33740;SDS011;20065;48.380;10.892;2023-08-01T12:04:04;4.90;;;2.50;;
33740;SDS011;20065;48.380;10.892;2023-08-01T12:06:53;7.00;;;3.60;;
33740;SDS011;20065;48.380;10.892;2023-08-01T12:09:41;5.53;;;2.83;;
33740;SDS011;20065;48.380;10.892;2023-08-01T12:12:27;5.77;;;2.87;;
33740;SDS011;20065;48.380;10.892;2023-08-01T12:15:14;7.07;;;3.30;;
33740;SDS011;20065;48.380;10.892;2023-08-01T12:18:01;8.53;;;3.37;;
33740;SDS011;20065;48.380;10.892;2023-08-01T12:20:47;10.93;;;3.50;;
33740;SDS011;20065;48.380;10.892;2023-08-01T12:23:33;6.40;;;3.73;;
33740;SDS011;20065;48.380;10.892;2023-08-01T12:26:21;6.50;;;3.90;;
33740;SDS011;20065;48.380;10.892;2023-08-01T12:29:07;6.43;;;3.30;;
33740;SDS011;20065;48.380;10.892;2023-08-01T12:31:54;5.90;;;3.60;;
33740;SDS011;20065;48.380;10.892;2023-08-01T12:34:40;6.57;;;3.93;;
33740;SDS011;20065;48.380;10.892;2023-08-01T12:37:29;7.10;;;4.13;;
33740;SDS011;20065;48.380;10.892;2023-08-01T12:40:15;6.90;;;4.03;;
33740;SDS011;20065;48.380;10.892;2023-08-01T12:43:02;9.73;;;4.27;;
33740;SDS011;20065;48.380;10.892;2023-08-01T12:45:51;6.90;;;3.60;;
33740;SDS011;20065;48.380;10.892;2023-08-01T12:48:41;5.67;;;3.77;;
33740;SDS011;20065;48.380;10.892;2023-08-01T12:51:27;5.67;;;3.23;;
33740;SDS011;20065;48.380;10.892;2023-08-01T12:54:13;6.40;;;3.20;;
33740;SDS011;20065;48.380;10.892;2023-08-01T12:56:59;5.83;;;2.73;;
33740;SDS011;20065;48.380;10.892;2023-08-01T12:59:45;4.87;;;2.47;;
33740;SDS011;20065;48.380;10.892;2023-08-01T13:02:32;4.07;;;2.53;;
33740;SDS011;20065;48.380;10.892;2023-08-01T13:05:22;6.37;;;2.80;;
33740;SDS011;20065;48.380;10.892;2023-08-01T13:08:08;5.97;;;2.60;;
33740;SDS011;20065;48.380;10.892;2023-08-01T13:10:54;8.53;;;3.13;;
33740;SDS011;20065;48.380;10.892;2023-08-01T13:13:41;5.97;;;3.03;;
33740;SDS011;20065;48.380;10.892;2023-08-01T13:16:27;5.03;;;3.00;;
33740;SDS011;20065;48.380;10.892;2023-08-01T13:19:14;8.10;;;3.50;;
33740;SDS011;20065;48.380;10.892;2023-08-01T13:22:00;5.43;;;3.17;;
33740;SDS011;20065;48.380;10.892;2023-08-01T13:24:47;6.10;;;3.20;;
33740;SDS011;20065;48.380;10.892;2023-08-01T13:27:34;6.00;;;3.30;;
33740;SDS011;20065;48.380;10.892;2023-08-01T13:30:21;5.23;;;3.17;;
33740;SDS011;20065;48.380;10.892;2023-08-01T13:33:07;4.80;;;3.00;;
33740;SDS011;20065;48.380;10.892;2023-08-01T13:35:53;5.43;;;3.13;;
33740;SDS011;20065;48.380;10.892;2023-08-01T13:38:39;4.87;;;3.10;;
33740;SDS011;20065;48.380;10.892;2023-08-01T13:41:25;5.23;;;2.90;;
33740;SDS011;20065;48.380;10.892;2023-08-01T13:44:12;5.33;;;2.80;;
33740;SDS011;20065;48.380;10.892;2023-08-01T13:46:58;4.40;;;2.10;;
33740;SDS011;20065;48.380;10.892;2023-08-01T13:49:50;5.33;;;2.47;;
33740;SDS011;20065;48.380;10.892;2023-08-01T13:52:37;4.20;;;1.87;;
33740;SDS011;20065;48.380;10.892;2023-08-01T13:55:23;3.50;;;1.73;;
33740;SDS011;20065;48.380;10.892;2023-08-01T13:58:09;3.10;;;1.37;;
33740;SDS011;20065;48.380;10.892;2023-08-01T14:01:00;2.47;;;1.03;;
33740;SDS011;20065;48.380;10.892;2023-08-01T14:03:48;3.40;;;1.60;;
33740;SDS011;20065;48.380;10.892;2023-08-01T14:09:24;3.00;;;1.43;;
33740;SDS011;20065;48.380;10.892;2023-08-01T14:12:10;3.40;;;1.20;;
33740;SDS011;20065;48.380;10.892;2023-08-01T14:14:57;3.97;;;1.40;;
33740;SDS011;20065;48.380;10.892;2023-08-01T14:17:43;2.87;;;1.30;;
33740;SDS011;20065;48.380;10.892;2023-08-01T14:20:29;2.90;;;1.33;;
33740;SDS011;20065;48.380;10.892;2023-08-01T14:23:15;2.90;;;1.00;;
33740;SDS011;20065;48.380;10.892;2023-08-01T14:26:01;4.17;;;1.60;;
33740;SDS011;20065;48.380;10.892;2023-08-01T14:28:47;2.80;;;1.43;;
33740;SDS011;20065;48.380;10.892;2023-08-01T14:31:35;3.70;;;1.57;;
33740;SDS011;20065;48.380;10.892;2023-08-01T14:34:21;2.53;;;1.30;;
33740;SDS011;20065;48.380;10.892;2023-08-01T14:37:07;2.57;;;1.33;;
33740;SDS011;20065;48.380;10.892;2023-08-01T14:39:53;4.53;;;1.87;;
33740;SDS011;20065;48.380;10.892;2023-08-01T14:42:40;3.00;;;1.20;;
33740;SDS011;20065;48.380;10.892;2023-08-01T14:45:26;2.40;;;1.40;;
33740;SDS011;20065;48.380;10.892;2023-08-01T14:48:12;2.30;;;1.00;;
33740;SDS011;20065;48.380;10.892;2023-08-01T14:50:58;3.33;;;1.53;;
33740;SDS011;20065;48.380;10.892;2023-08-01T14:53:44;2.53;;;1.37;;
33740;SDS011;20065;48.380;10.892;2023-08-01T14:56:31;3.00;;;1.50;;
33740;SDS011;20065;48.380;10.892;2023-08-01T14:59:17;5.20;;;1.90;;
33740;SDS011;20065;48.380;10.892;2023-08-01T15:02:04;2.83;;;1.50;;
33740;SDS011;20065;48.380;10.892;2023-08-01T15:04:52;6.70;;;2.23;;
33740;SDS011;20065;48.380;10.892;2023-08-01T15:07:40;4.23;;;2.10;;
33740;SDS011;20065;48.380;10.892;2023-08-01T15:10:27;4.53;;;1.97;;
33740;SDS011;20065;48.380;10.892;2023-08-01T15:13:13;3.50;;;1.90;;
33740;SDS011;20065;48.380;10.892;2023-08-01T15:15:59;4.37;;;1.57;;
33740;SDS011;20065;48.380;10.892;2023-08-01T15:18:46;3.43;;;1.70;;
33740;SDS011;20065;48.380;10.892;2023-08-01T15:21:32;3.43;;;1.50;;
33740;SDS011;20065;48.380;10.892;2023-08-01T15:24:18;2.80;;;1.50;;
33740;SDS011;20065;48.380;10.892;2023-08-01T15:27:05;3.60;;;1.80;;
33740;SDS011;20065;48.380;10.892;2023-08-01T15:29:51;3.00;;;1.27;;
33740;SDS011;20065;48.380;10.892;2023-08-01T15:32:37;2.50;;;1.27;;
33740;SDS011;20065;48.380;10.892;2023-08-01T15:35:28;2.80;;;1.40;;
33740;SDS011;20065;48.380;10.892;2023-08-01T15:38:15;3.53;;;1.30;;
33740;SDS011;20065;48.380;10.892;2023-08-01T15:41:01;3.70;;;1.53;;
33740;SDS011;20065;48.380;10.892;2023-08-01T15:43:53;3.80;;;1.77;;
33740;SDS011;20065;48.380;10.892;2023-08-01T15:46:40;3.30;;;1.57;;
33740;SDS011;20065;48.380;10.892;2023-08-01T15:49:26;2.50;;;1.40;;
33740;SDS011;20065;48.380;10.892;2023-08-01T15:52:12;4.20;;;1.47;;
33740;SDS011;20065;48.380;10.892;2023-08-01T15:54:58;2.83;;;1.37;;
33740;SDS011;20065;48.380;10.892;2023-08-01T15:57:45;2.47;;;1.10;;
33740;SDS011;20065;48.380;10.892;2023-08-01T16:00:31;2.27;;;1.07;;
33740;SDS011;20065;48.380;10.892;2023-08-01T16:03:18;3.47;;;1.30;;
33740;SDS011;20065;48.380;10.892;2023-08-01T16:06:06;3.17;;;1.53;;
33740;SDS011;20065;48.380;10.892;2023-08-01T16:09:01;2.80;;;1.10;;
33740;SDS011;20065;48.380;10.892;2023-08-01T16:11:49;2.93;;;1.40;;
33740;SDS011;20065;48.380;10.892;2023-08-01T16:14:35;2.30;;;1.10;;
33740;SDS011;20065;48.380;10.892;2023-08-01T16:17:21;2.30;;;1.07;;
33740;SDS011;20065;48.380;10.892;2023-08-01T16:20:09;2.70;;;1.20;;
33740;SDS011;20065;48.380;10.892;2023-08-01T16:22:56;3.00;;;1.20;;
33740;SDS011;20065;48.380;10.892;2023-08-01T16:25:43;2.70;;;0.93;;
33740;SDS011;20065;48.380;10.892;2023-08-01T16:28:29;5.13;;;0.97;;
33740;SDS011;20065;48.380;10.892;2023-08-01T16:31:15;2.87;;;1.10;;
33740;SDS011;20065;48.380;10.892;2023-08-01T16:34:01;2.37;;;1.00;;
33740;SDS011;20065;48.380;10.892;2023-08-01T16:36:47;2.10;;;0.77;;
33740;SDS011;20065;48.380;10.892;2023-08-01T16:39:33;2.43;;;1.17;;
33740;SDS011;20065;48.380;10.892;2023-08-01T16:42:23;2.73;;;1.30;;